This is the latest recevied weather packets stored in our database for station/object WC0AA15WX. If no packets are shown the sender has not sent any weather packets the latest 10 day(s).
| Time | Temp. | Humidity | Pressure | Rain* | Wind** | Luminosity | Snow |
|---|---|---|---|---|---|---|---|
| 1777680913 | 16.11° C | 46% | 1021 hPa | 0 mm | - | - | - |
| 1777680283 | 17.22° C | 41% | 1021 hPa | 0 mm | - | - | - |
| 1777679683 | 17.22° C | 40% | 1021 hPa | 0 mm | - | - | - |
| 1777679083 | 16.67° C | 40% | 1021 hPa | 0 mm | - | - | - |
| 1777678483 | 16.67° C | 40% | 1021 hPa | 0 mm | - | - | - |
| 1777677882 | 17.22° C | 39% | 1021 hPa | 0 mm | - | - | - |
| 1777677282 | 17.22° C | 38% | 1021 hPa | 0 mm | - | - | - |
| 1777676682 | 17.78° C | 39% | 1021 hPa | 0 mm | - | - | - |
| 1777676082 | 18.33° C | 38% | 1021 hPa | 0 mm | - | - | - |
| 1777675482 | 18.33° C | 37% | 1021 hPa | 0 mm | - | - | - |
| 1777674882 | 18.33° C | 37% | 1021 hPa | 0 mm | - | - | - |
| 1777674284 | 18.33° C | 34% | 1021 hPa | 0 mm | - | - | - |
| 1777673682 | 18.33° C | 36% | 1021 hPa | 0 mm | - | - | - |
| 1777673082 | 18.33° C | 35% | 1021 hPa | 0 mm | - | - | - |
| 1777672482 | 19.44° C | 33% | 1021 hPa | 0 mm | - | - | - |
| 1777671882 | 21.11° C | 31% | 1021 hPa | 0 mm | - | - | - |
| 1777671282 | 19.44° C | 33% | 1021.3 hPa | 0 mm | - | - | - |
| 1777670682 | 19.44° C | 33% | 1021.3 hPa | 0 mm | - | - | - |
| 1777670082 | 20.56° C | 31% | 1021.3 hPa | 0 mm | - | - | - |
| 1777669482 | 21.11° C | 29% | 1021.7 hPa | 0 mm | - | - | - |
| 1777668882 | 20.56° C | 32% | 1022 hPa | 0 mm | - | - | - |
| 1777668282 | 18.89° C | 35% | 1022.1 hPa | 0 mm | - | - | - |
| 1777667682 | 18.89° C | 33% | 1022.4 hPa | 0 mm | - | - | - |
| 1777667082 | 18.89° C | 33% | 1022.4 hPa | 0 mm | - | - | - |
| 1777666482 | 18.89° C | 33% | 1022.7 hPa | 0 mm | - | - | - |
* Rain latest hour (hover to see other rain measurements)
** Current wind speed in m/s (hover to see current wind gust speed)